Архив погоды в Мирном

Метеограмма Мирный
Среда, 15 Августа
Время местн. Темп Ветер Видим Явления Облачность нижн/средн/верх Атм. давл. Влжн Точка росы ВНГО R Сост. почвы Tg s
Напр Скр Прв ур.ст ур.м изм
03:00 +14.5° В 2 - 20 км - облачно 727 758 -0.5 100% +14.5° - - - - -
00:00 +17.2° В 2 - 20 км - облачно 728 758 +0.1 93% +16° более 2.5 км - - - -
Вторник, 14 Августа
Время местн. Темп Ветер Видим Явления Облачность нижн/средн/верх Атм. давл. Влжн Точка росы ВНГО R Сост. почвы Tg s
Напр Скр Прв ур.ст ур.м изм
21:00 +22.8° Ю-В 3 - 20 км - облачно 727 758 +0.2 68% +16.6° более 2.5 км 0 - - -
18:00 +26.3° В,Ю-В 3 - более 50 км - облачно 727 757 0 51% +15.5° более 2.5 км - - - -
15:00 +27.7° Ю-В 3 - 50 км - переменная облачность 727 757 -0.3 42% +13.8° более 2.5 км - - - -
12:00 +24.4° Ю-В 4 - более 50 км - облачно 728 758 -0.1 55% +14.9° более 2.5 км - - - -
09:00 +16° В 2 - 50 км - облачно 728 759 +0.6 88% +14.1° более 2.5 км 0 Влажная (без луж) - -
06:00 +11.9° С,С-В 2 - 20 км - переменная облачность 727 759 +0.3 96% +11.3° более 2.5 км - - - -
03:00 +13° В 2 - более 50 км - ясно 727 758 +0.2 93% +11.9° более 2.5 км - - - -
00:00 +16.3° В 2 - 50 км - переменная облачность 727 758 +0.7 89% +14.4° более 2.5 км - - - -
Понедельник, 13 Августа
Время местн. Темп Ветер Видим Явления Облачность нижн/средн/верх Атм. давл. Влжн Точка росы ВНГО R Сост. почвы Tg s
Напр Скр Прв ур.ст ур.м изм
21:00 +20.4° В 2 - более 50 км - переменная облачность 726 756 +0.5 68% +14.4° более 2.5 км 0 - - -
18:00 +23.8° В,Ю-В 4 - более 50 км - переменная облачность 726 756 -0.2 58% +15° более 2.5 км - - - -
15:00 +22.6° Ю-В 4 - 50 км - облачно 726 756 +0.1 59% +14.3° более 2.5 км - - - -
12:00 +20.1° Ю-В 4 - 50 км - облачно 726 756 -0.3 71% +14.6° более 2.5 км - - - -
09:00 +12.3° В 2 - 2 км туман неба не видно 726 757 +0.8 100% +12.3° - 0 Влажная (без луж) +9° -
06:00 +10.2° В 1 - 0.5 км туман неба не видно 725 757 0 100% +10.2° 100 м - - - -
03:00 +11.1° В,Ю-В 2 - 50 км - переменная облачность 725 757 +0.4 100% +11.1° более 2.5 км - - - -
00:00 +13.7° Ю-В 3 - 50 км - переменная облачность 725 756 +0.4 91% +12.2° более 2.5 км - - - -
Воскресенье, 12 Августа
Время местн. Темп Ветер Видим Явления Облачность нижн/средн/верх Атм. давл. Влжн Точка росы ВНГО R Сост. почвы Tg s
Напр Скр Прв ур.ст ур.м изм
21:00 +16.6° Ю-В 2 - более 50 км - переменная облачность 724 755 +0.4 78% +12.8° более 2.5 км 0 - - -
18:00 +17.9° Ю,Ю-В 3 - 50 км - облачно с прояснениями 724 755 +0.1 67% +11.7° 1 км - - - -
15:00 +15.4° В 2 - более 50 км - преимущественно облачно 724 755 0 77% +11.3° 600 м - - - -
12:00 +12.8° В 1 - более 50 км - облачно 724 755 +0.3 86% +10.5° 300 м - - - -
09:00 +11.7° С 3 - 10 км - облачно 724 755 +1.1 96% +11.1° 200 м 0 Сырая (есть малые или большие лужи) +10° -
06:00 +11.5° С,С-З 2 - 10 км - облачно 723 754 +0.7 100% +11.5° 200 м - - - -
03:00 +11.8° З,С-З 3 - 4 км дымка переменная облачность 722 753 +0.6 100% +11.8° более 2.5 км - - - -
00:00 +13.3° З,С-З 3 - 10 км - переменная облачность 721 752 0 100% +13.3° - - - - -